createdAt,value
2023-06-24T00:07:50.530Z,12.60
2023-06-24T00:17:51.040Z,13.20
2023-06-24T00:27:51.597Z,13.80
2023-06-24T00:37:52.280Z,15.20
2023-06-24T00:47:52.885Z,16.30
2023-06-24T00:57:53.409Z,16.90
2023-06-24T01:07:53.983Z,18.30
2023-06-24T01:17:54.582Z,18.30
2023-06-24T01:27:55.329Z,17.90
2023-06-24T01:37:55.852Z,17.40
2023-06-24T01:47:56.444Z,17.00
2023-06-24T01:57:56.996Z,17.20
2023-06-24T02:07:57.568Z,16.30
2023-06-24T02:17:58.372Z,16.30
2023-06-24T02:27:58.958Z,16.00
2023-06-24T02:37:59.438Z,15.00
2023-06-24T02:47:59.950Z,14.80
2023-06-24T02:58:00.443Z,14.20
2023-06-24T03:08:00.949Z,13.70
2023-06-24T03:18:01.503Z,13.40
2023-06-24T03:28:02.034Z,13.20
2023-06-24T03:38:02.497Z,16.40
2023-06-24T03:48:03.064Z,12.80
2023-06-24T03:58:03.588Z,13.40
2023-06-24T04:08:04.113Z,13.10
2023-06-24T04:18:04.600Z,12.80
2023-06-24T04:28:05.113Z,12.70
2023-06-24T04:38:05.627Z,12.70
2023-06-24T04:48:06.136Z,12.10
2023-06-24T04:58:06.616Z,10.90
2023-06-24T05:08:07.131Z,10.60
2023-06-24T05:18:14.613Z,10.10
2023-06-24T05:28:08.099Z,9.20
2023-06-24T05:38:08.569Z,9.30
2023-06-24T05:48:09.088Z,9.40
2023-06-24T05:58:09.567Z,9.30
2023-06-24T06:08:10.121Z,9.30
2023-06-24T06:18:10.621Z,9.90
2023-06-24T06:28:11.132Z,8.60
2023-06-24T06:38:11.583Z,8.70
2023-06-24T06:48:12.096Z,9.10
2023-06-24T06:58:12.571Z,9.30
2023-06-24T07:08:13.086Z,8.40
2023-06-24T07:18:13.571Z,8.20
2023-06-24T07:28:14.067Z,7.50
2023-06-24T07:38:14.700Z,7.60
2023-06-24T07:48:15.217Z,7.00
2023-06-24T07:58:15.680Z,6.50
2023-06-24T08:08:16.211Z,5.80
2023-06-24T08:18:16.690Z,6.00
2023-06-24T08:28:17.205Z,5.80
2023-06-24T08:38:17.693Z,5.90
2023-06-24T08:48:18.375Z,5.00
2023-06-24T08:58:18.895Z,4.70
2023-06-24T09:08:19.407Z,4.70
2023-06-24T09:18:19.880Z,5.40
2023-06-24T09:28:20.388Z,5.60
2023-06-24T09:38:20.874Z,4.60
2023-06-24T09:48:21.404Z,5.00
2023-06-24T09:58:21.881Z,4.30
2023-06-24T10:08:22.400Z,4.20
2023-06-24T10:18:22.914Z,3.80
2023-06-24T10:28:23.434Z,3.70
2023-06-24T10:38:23.917Z,4.30
2023-06-24T10:48:24.456Z,4.30
2023-06-24T10:58:24.921Z,4.30
2023-06-24T11:08:25.503Z,4.30
2023-06-24T11:18:32.973Z,4.20
2023-06-24T11:28:26.501Z,4.60
2023-06-24T11:38:26.985Z,4.40
2023-06-24T11:48:27.514Z,4.30
2023-06-24T11:58:28.021Z,4.10
2023-06-24T12:08:33.482Z,4.40
2023-06-24T12:18:30.392Z,3.90
2023-06-24T12:28:29.908Z,3.80
2023-06-24T12:38:30.413Z,3.20
2023-06-24T12:48:30.932Z,4.10
2023-06-24T12:58:31.434Z,4.00
2023-06-24T13:08:31.940Z,3.90
2023-06-24T13:18:32.450Z,3.80
2023-06-24T13:28:33.018Z,3.90
2023-06-24T13:38:33.490Z,4.00
2023-06-24T13:48:33.995Z,4.10
2023-06-24T13:58:34.482Z,4.30
2023-06-24T14:08:35.080Z,4.10
2023-06-24T14:18:35.608Z,4.20
2023-06-24T14:28:36.169Z,4.20
2023-06-24T14:38:36.648Z,4.10
2023-06-24T14:48:37.251Z,4.40
2023-06-24T14:58:37.829Z,4.30
2023-06-24T15:08:38.374Z,4.30
2023-06-24T15:18:38.887Z,4.40
2023-06-24T15:28:39.377Z,4.30
2023-06-24T15:38:39.868Z,4.60
2023-06-24T15:48:40.403Z,4.60
2023-06-24T15:58:40.886Z,4.60
2023-06-24T16:08:41.419Z,4.20
2023-06-24T16:18:41.925Z,4.10
2023-06-24T16:28:42.437Z,4.20
2023-06-24T16:38:42.940Z,4.30
2023-06-24T16:48:43.501Z,4.10
2023-06-24T16:58:44.022Z,4.60
2023-06-24T17:08:44.651Z,4.60
2023-06-24T17:18:52.148Z,4.30
2023-06-24T17:28:45.673Z,3.90
2023-06-24T17:38:46.126Z,4.20
2023-06-24T17:48:46.655Z,4.50
2023-06-24T17:58:47.131Z,4.60
2023-06-24T18:08:47.659Z,4.40
2023-06-24T18:18:48.123Z,4.30
2023-06-24T18:28:48.658Z,4.00
2023-06-24T18:38:49.126Z,4.60
2023-06-24T18:48:49.652Z,4.50
2023-06-24T18:58:50.107Z,4.60
2023-06-24T19:08:50.621Z,5.30
2023-06-24T19:18:51.082Z,6.10
2023-06-24T19:28:51.623Z,5.30
2023-06-24T19:38:52.088Z,5.40
2023-06-24T19:48:52.615Z,5.90
2023-06-24T19:58:53.078Z,6.20
2023-06-24T20:08:53.612Z,6.30
2023-06-24T20:18:54.161Z,6.60
2023-06-24T20:28:54.739Z,7.60
2023-06-24T20:38:55.286Z,7.50
2023-06-24T20:48:55.872Z,7.10
2023-06-24T20:58:56.374Z,7.50
2023-06-24T21:08:56.962Z,7.60
2023-06-24T21:18:57.503Z,8.40
2023-06-24T21:28:58.088Z,10.20
2023-06-24T21:38:58.613Z,10.70
2023-06-24T21:48:59.200Z,10.10
2023-06-24T21:58:59.730Z,10.00
2023-06-24T22:09:00.301Z,10.00
2023-06-24T22:19:00.840Z,11.00
2023-06-24T22:29:01.393Z,11.00
2023-06-24T22:39:01.920Z,10.10
2023-06-24T22:49:02.494Z,10.90
2023-06-24T22:59:03.017Z,10.40
2023-06-24T23:09:03.591Z,9.90
2023-06-24T23:19:11.126Z,10.80
2023-06-24T23:29:04.699Z,10.50
2023-06-24T23:39:05.252Z,11.20
2023-06-24T23:49:05.670Z,12.10
2023-06-24T23:59:06.207Z,12.30
